Time,TemperatureF,DewpointF,PressureIn,WindDirection,WindDirectionDegrees,WindSpeedMPH,WindSpeedGustMPH,Humidity,HourlyPrecipIn,Conditions,Clouds,dailyrainin,SoftwareType,DateUTC
2013-10-10 00:01:00,50.2,45.2,30.23,NE,52,0.5,2.3,83,0.00,CLR,,0.00,WeatherDisplay:10.37,2013-10-10 04:01:00,
2013-10-10 00:06:00,50.2,45.2,30.23,NE,52,0.0,0.0,83,0.00,CLR,,0.00,WeatherDisplay:10.37,2013-10-10 04:06:00,
2013-10-10 00:11:00,50.4,45.4,30.23,North,6,0.0,3.5,83,0.00,CLR,,0.00,WeatherDisplay:10.37,2013-10-10 04:11:00,
2013-10-10 00:16:00,50.4,45.4,30.22,North,7,0.0,1.2,83,0.00,CLR,,0.00,WeatherDisplay:10.37,2013-10-10 04:16:00,
2013-10-10 00:21:00,50.5,45.5,30.21,North,0,0.0,0.0,83,0.00,CLR,,0.00,WeatherDisplay:10.37,2013-10-10 04:21:00,
2013-10-10 00:26:00,50.8,45.5,30.22,North,3,0.0,0.0,82,0.00,CLR,,0.00,WeatherDisplay:10.37,2013-10-10 04:26:00,
2013-10-10 00:31:00,50.8,45.8,30.22,North,10,0.0,0.0,83,0.00,CLR,,0.00,WeatherDisplay:10.37,2013-10-10 04:31:00,
2013-10-10 00:36:00,50.5,45.5,30.22,North,10,0.0,0.0,83,0.00,CLR,,0.00,WeatherDisplay:10.37,2013-10-10 04:36:00,
2013-10-10 00:41:00,50.7,45.7,30.21,NE,41,0.0,2.0,83,0.00,CLR,,0.00,WeatherDisplay:10.37,2013-10-10 04:41:00,
2013-10-10 00:46:00,50.8,45.5,30.21,NE,52,0.0,1.2,82,0.00,CLR,,0.00,WeatherDisplay:10.37,2013-10-10 04:46:00,
2013-10-10 00:51:00,50.8,45.5,30.21,NE,34,0.5,1.0,82,0.00,CLR,,0.00,WeatherDisplay:10.37,2013-10-10 04:51:00,
2013-10-10 00:56:00,50.8,45.5,30.21,NE,49,0.0,2.3,82,0.00,CLR,,0.00,WeatherDisplay:10.37,2013-10-10 04:56:00,
2013-10-10 01:01:00,51.0,45.7,30.21,NE,49,0.0,0.0,82,0.00,CLR,,0.00,WeatherDisplay:10.37,2013-10-10 05:01:00,
2013-10-10 01:06:00,51.1,45.5,30.21,NNE,18,1.1,3.5,81,0.00,CLR,,0.00,WeatherDisplay:10.37,2013-10-10 05:06:00,
2013-10-10 01:11:00,51.4,45.8,30.21,NNE,21,0.9,5.8,81,0.00,CLR,,0.00,WeatherDisplay:10.37,2013-10-10 05:11:00,
2013-10-10 01:16:00,51.6,46.0,30.21,NNE,14,1.6,6.9,81,0.00,CLR,,0.00,WeatherDisplay:10.37,2013-10-10 05:16:00,
2013-10-10 01:21:00,51.7,45.7,30.21,North,0,1.7,3.5,80,0.00,CLR,,0.00,WeatherDisplay:10.37,2013-10-10 05:21:00,
2013-10-10 01:26:00,51.7,45.7,30.21,NNE,13,2.4,6.0,80,0.00,CLR,,0.00,WeatherDisplay:10.37,2013-10-10 05:26:00,
2013-10-10 01:31:00,51.7,45.7,30.20,North,7,3.4,6.9,80,0.00,CLR,,0.00,WeatherDisplay:10.37,2013-10-10 05:31:00,
2013-10-10 01:36:00,51.9,45.6,30.20,NNW,344,5.2,6.9,79,0.00,CLR,,0.00,WeatherDisplay:10.37,2013-10-10 05:36:00,
2013-10-10 01:41:00,52.0,45.7,30.20,North,354,3.1,6.9,79,0.00,CLR,,0.00,WeatherDisplay:10.37,2013-10-10 05:41:00,
2013-10-10 01:46:00,52.0,45.4,30.20,North,356,2.7,8.1,78,0.00,CLR,,0.00,WeatherDisplay:10.37,2013-10-10 05:46:00,
2013-10-10 01:51:00,52.0,45.4,30.20,North,0,2.0,5.8,78,0.00,CLR,,0.00,WeatherDisplay:10.37,2013-10-10 05:51:00,
2013-10-10 01:56:00,52.0,45.4,30.20,North,0,3.3,5.8,78,0.00,CLR,,0.00,WeatherDisplay:10.37,2013-10-10 05:56:00,
2013-10-10 02:01:00,52.0,45.4,30.20,North,8,2.3,3.5,78,0.00,CLR,,0.00,WeatherDisplay:10.37,2013-10-10 06:01:00,
2013-10-10 02:06:00,52.0,45.4,30.20,North,0,1.1,4.6,78,0.00,CLR,,0.00,WeatherDisplay:10.37,2013-10-10 06:06:00,
2013-10-10 02:11:00,52.0,45.4,30.19,NNE,32,2.5,4.6,78,0.00,CLR,,0.00,WeatherDisplay:10.37,2013-10-10 06:11:00,
2013-10-10 02:16:00,52.0,45.4,30.19,NNE,27,1.7,5.8,78,0.00,CLR,,0.00,WeatherDisplay:10.37,2013-10-10 06:16:00,
2013-10-10 02:21:00,52.0,45.4,30.20,NE,54,0.4,5.8,78,0.00,CLR,,0.00,WeatherDisplay:10.37,2013-10-10 06:21:00,
2013-10-10 02:26:00,51.9,45.3,30.20,NE,51,0.1,3.5,78,0.00,CLR,,0.00,WeatherDisplay:10.37,2013-10-10 06:26:00,
2013-10-10 02:31:00,51.7,45.4,30.20,East,80,0.2,2.3,79,0.00,CLR,,0.00,WeatherDisplay:10.37,2013-10-10 06:31:00,
2013-10-10 02:36:00,51.6,45.3,30.19,ENE,68,0.0,0.0,79,0.00,CLR,,0.00,WeatherDisplay:10.37,2013-10-10 06:36:00,
2013-10-10 02:41:00,51.6,45.0,30.19,East,83,0.2,3.0,78,0.00,CLR,,0.00,WeatherDisplay:10.37,2013-10-10 06:41:00,
2013-10-10 02:46:00,51.6,44.6,30.19,NE,54,0.7,4.6,77,0.00,CLR,,0.00,WeatherDisplay:10.37,2013-10-10 06:46:00,
2013-10-10 02:51:00,51.7,44.4,30.19,ENE,58,0.7,2.3,76,0.00,CLR,,0.00,WeatherDisplay:10.37,2013-10-10 06:51:00,
2013-10-10 02:56:00,51.7,44.0,30.19,East,92,3.4,4.6,75,0.00,CLR,,0.00,WeatherDisplay:10.37,2013-10-10 06:56:00,
2013-10-10 03:01:00,51.7,43.7,30.19,NNE,31,0.3,2.3,74,0.00,CLR,,0.00,WeatherDisplay:10.37,2013-10-10 07:01:00,
2013-10-10 03:06:00,51.7,43.3,30.19,NNE,16,3.7,5.8,73,0.00,CLR,,0.00,WeatherDisplay:10.37,2013-10-10 07:06:00,
2013-10-10 03:11:00,51.7,43.3,30.19,ENE,75,4.3,8.1,73,0.00,CLR,,0.00,WeatherDisplay:10.37,2013-10-10 07:11:00,
2013-10-10 03:16:00,51.9,43.5,30.19,NE,42,2.1,5.8,73,0.00,CLR,,0.00,WeatherDisplay:10.37,2013-10-10 07:16:00,
2013-10-10 03:21:00,51.7,43.3,30.19,ENE,76,0.7,4.6,73,0.00,CLR,,0.00,WeatherDisplay:10.37,2013-10-10 07:21:00,
2013-10-10 05:01:00,51.3,44.0,30.19,NE,47,2.7,3.0,76,0.00,CLR,,0.00,WeatherDisplay:10.37,2013-10-10 09:01:00,
2013-10-10 05:06:00,51.1,43.8,30.19,NE,35,3.0,4.6,76,0.00,CLR,,0.00,WeatherDisplay:10.37,2013-10-10 09:06:00,
2013-10-10 05:11:00,51.1,43.8,30.19,North,11,4.9,11.5,76,0.00,CLR,,0.00,WeatherDisplay:10.37,2013-10-10 09:11:00,
2013-10-10 05:16:00,51.3,44.0,30.19,ENE,72,4.7,11.5,76,0.00,CLR,,0.00,WeatherDisplay:10.37,2013-10-10 09:16:00,
2013-10-10 05:21:00,51.3,44.0,30.19,NE,47,2.6,5.8,76,0.00,CLR,,0.00,WeatherDisplay:10.37,2013-10-10 09:21:00,
2013-10-10 05:26:00,51.1,43.8,30.19,ENE,71,3.6,6.9,76,0.00,CLR,,0.00,WeatherDisplay:10.37,2013-10-10 09:26:00,
2013-10-10 05:31:00,51.1,44.1,30.19,NE,51,3.3,4.6,77,0.00,CLR,,0.00,WeatherDisplay:10.37,2013-10-10 09:31:00,
2013-10-10 05:36:00,51.1,44.1,30.19,NNE,27,2.0,5.0,77,0.00,CLR,,0.00,WeatherDisplay:10.37,2013-10-10 09:36:00,
2013-10-10 05:41:00,51.1,44.1,30.19,NE,49,3.9,8.1,77,0.00,CLR,,0.00,WeatherDisplay:10.37,2013-10-10 09:41:00,
2013-10-10 05:46:00,51.1,44.1,30.19,NNE,20,0.0,2.3,77,0.00,CLR,,0.00,WeatherDisplay:10.37,2013-10-10 09:46:00,
2013-10-10 05:51:00,51.1,44.1,30.19,North,8,3.8,5.8,77,0.00,CLR,,0.00,WeatherDisplay:10.37,2013-10-10 09:51:00,
2013-10-10 05:56:00,51.1,44.1,30.19,North,356,0.5,5.0,77,0.00,CLR,,0.00,WeatherDisplay:10.37,2013-10-10 09:56:00,
2013-10-10 06:01:00,51.0,44.0,30.19,North,3,2.5,4.6,77,0.00,CLR,,0.00,WeatherDisplay:10.37,2013-10-10 10:01:00,
2013-10-10 06:06:00,51.0,44.0,30.19,NE,34,3.4,5.8,77,0.00,CLR,,0.00,WeatherDisplay:10.37,2013-10-10 10:06:00,
2013-10-10 06:11:00,50.8,44.2,30.19,NNE,24,2.9,5.0,78,0.00,CLR,,0.00,WeatherDisplay:10.37,2013-10-10 10:11:00,
2013-10-10 06:16:00,50.8,44.2,30.18,North,0,4.9,6.9,78,0.00,CLR,,0.00,WeatherDisplay:10.37,2013-10-10 10:16:00,
2013-10-10 06:21:00,50.8,44.2,30.18,NNE,14,4.0,6.9,78,0.00,CLR,,0.00,WeatherDisplay:10.37,2013-10-10 10:21:00,
2013-10-10 06:26:00,50.8,44.2,30.18,NE,34,4.1,6.0,78,0.00,CLR,,0.00,WeatherDisplay:10.37,2013-10-10 10:26:00,
2013-10-10 06:31:00,50.7,44.1,30.18,NE,40,5.6,7.0,78,0.00,CLR,,0.00,WeatherDisplay:10.37,2013-10-10 10:31:00,
2013-10-10 06:36:00,50.7,44.4,30.18,North,0,4.6,5.8,79,0.00,CLR,,0.00,WeatherDisplay:10.37,2013-10-10 10:36:00,
2013-10-10 06:41:00,50.7,44.4,30.18,NNE,24,4.1,7.0,79,0.00,CLR,,0.00,WeatherDisplay:10.37,2013-10-10 10:41:00,
2013-10-10 06:46:00,50.7,44.4,30.18,NNE,30,4.2,6.9,79,0.00,CLR,,0.00,WeatherDisplay:10.37,2013-10-10 10:46:00,
2013-10-10 06:51:00,50.7,44.4,30.17,North,3,3.1,6.9,79,0.00,CLR,,0.00,WeatherDisplay:10.37,2013-10-10 10:51:00,
2013-10-10 06:56:00,50.7,44.4,30.17,North,3,3.0,10.4,79,0.00,CLR,,0.00,WeatherDisplay:10.37,2013-10-10 10:56:00,
2013-10-10 07:01:00,50.7,44.8,30.17,North,0,6.3,10.4,80,0.00,CLR,,0.00,WeatherDisplay:10.37,2013-10-10 11:01:00,
2013-10-10 07:06:00,50.7,44.8,30.17,North,0,4.8,9.2,80,0.00,CLR,,0.00,WeatherDisplay:10.37,2013-10-10 11:06:00,
2013-10-10 07:11:00,50.5,44.6,30.17,East,85,5.6,11.5,80,0.00,CLR,,0.00,WeatherDisplay:10.37,2013-10-10 11:11:00,
2013-10-10 07:16:00,50.5,44.6,30.17,North,1,4.1,8.1,80,0.00,CLR,,0.00,WeatherDisplay:10.37,2013-10-10 11:16:00,
2013-10-10 07:21:00,50.4,44.5,30.17,North,0,8.3,11.5,80,0.00,CLR,,0.00,WeatherDisplay:10.37,2013-10-10 11:21:00,
2013-10-10 07:26:00,50.2,44.6,30.17,North,0,5.8,11.5,81,0.00,CLR,,0.00,WeatherDisplay:10.37,2013-10-10 11:26:00,
2013-10-10 07:31:00,50.1,44.8,30.17,North,0,6.2,11.5,82,0.00,CLR,,0.00,WeatherDisplay:10.37,2013-10-10 11:31:00,
2013-10-10 07:36:00,50.1,44.8,30.17,North,359,4.9,6.9,82,0.00,CLR,,0.00,WeatherDisplay:10.37,2013-10-10 11:36:00,
2013-10-10 07:41:00,49.9,44.6,30.17,North,359,4.7,5.8,82,0.00,CLR,,0.00,WeatherDisplay:10.37,2013-10-10 11:41:00,
2013-10-10 07:46:00,49.9,44.9,30.17,NNE,24,8.1,11.5,83,0.00,CLR,,0.00,WeatherDisplay:10.37,2013-10-10 11:46:00,
2013-10-10 07:51:00,49.9,44.9,30.17,North,0,4.2,5.0,83,0.00,CLR,,0.00,WeatherDisplay:10.37,2013-10-10 11:51:00,
2013-10-10 07:56:00,49.8,44.8,30.17,North,0,5.3,10.4,83,0.00,CLR,,0.00,WeatherDisplay:10.37,2013-10-10 11:56:00,
2013-10-10 08:01:00,49.8,44.8,30.17,North,6,5.3,10.4,83,0.00,CLR,,0.00,WeatherDisplay:10.37,2013-10-10 12:01:00,
2013-10-10 08:06:00,49.8,45.2,30.17,North,0,6.3,11.5,84,0.00,CLR,,0.00,WeatherDisplay:10.37,2013-10-10 12:06:00,
2013-10-10 08:11:00,49.8,45.2,30.17,NNE,18,5.7,8.1,84,0.00,CLR,,0.00,WeatherDisplay:10.37,2013-10-10 12:11:00,
2013-10-10 08:16:00,49.6,45.3,30.17,North,350,4.4,8.1,85,0.00,CLR,,0.00,WeatherDisplay:10.37,2013-10-10 12:16:00,
2013-10-10 08:21:00,49.6,45.3,30.17,NNE,16,5.9,9.2,85,0.00,CLR,,0.00,WeatherDisplay:10.37,2013-10-10 12:21:00,
2013-10-10 08:26:00,49.6,45.6,30.17,NNE,27,5.7,11.5,86,0.00,CLR,,0.00,WeatherDisplay:10.37,2013-10-10 12:26:00,
2013-10-10 08:31:00,49.5,45.5,30.17,NNE,20,5.4,10.4,86,0.00,CLR,,0.00,WeatherDisplay:10.37,2013-10-10 12:31:00,
2013-10-10 08:36:00,49.5,45.5,30.17,NE,49,6.1,8.1,86,0.00,CLR,,0.00,WeatherDisplay:10.37,2013-10-10 12:36:00,
2013-10-10 08:41:00,49.5,45.5,30.17,North,0,5.7,7.0,86,0.00,CLR,,0.00,WeatherDisplay:10.37,2013-10-10 12:41:00,
2013-10-10 08:46:00,49.5,45.5,30.17,North,350,5.8,8.1,86,0.00,CLR,,0.00,WeatherDisplay:10.37,2013-10-10 12:46:00,
2013-10-10 08:51:00,49.6,45.6,30.17,NE,40,7.2,11.5,86,0.00,CLR,,0.00,WeatherDisplay:10.37,2013-10-10 12:51:00,
2013-10-10 08:56:00,49.6,45.9,30.17,NNW,330,6.6,10.4,87,0.00,CLR,,0.00,WeatherDisplay:10.37,2013-10-10 12:56:00,
2013-10-10 09:01:00,49.5,45.8,30.17,North,3,7.0,10.4,87,0.00,CLR,,0.00,WeatherDisplay:10.37,2013-10-10 13:01:00,
2013-10-10 09:06:00,49.5,45.8,30.17,North,354,7.9,10.0,87,0.00,CLR,,0.00,WeatherDisplay:10.37,2013-10-10 13:06:00,
2013-10-10 09:11:00,49.5,46.1,30.16,North,354,8.9,11.5,88,0.00,CLR,,0.00,WeatherDisplay:10.37,2013-10-10 13:11:00,
2013-10-10 09:16:00,49.6,46.2,30.17,North,0,5.0,6.0,88,0.00,CLR,,0.00,WeatherDisplay:10.37,2013-10-10 13:16:00,
2013-10-10 09:21:00,49.6,46.2,30.17,North,0,4.3,11.5,88,0.00,CLR,,0.00,WeatherDisplay:10.37,2013-10-10 13:21:00,
2013-10-10 09:26:00,49.6,45.9,30.17,North,1,5.2,8.0,87,0.00,CLR,,0.00,WeatherDisplay:10.37,2013-10-10 13:26:00,
2013-10-10 09:31:00,49.6,45.9,30.17,NNW,337,6.5,10.4,87,0.00,CLR,,0.00,WeatherDisplay:10.37,2013-10-10 13:31:00,
2013-10-10 09:36:00,49.6,45.9,30.17,North,0,9.8,12.7,87,0.00,CLR,,0.00,WeatherDisplay:10.37,2013-10-10 13:36:00,
2013-10-10 09:41:00,49.8,46.1,30.17,NNE,17,5.7,11.5,87,0.00,CLR,,0.00,WeatherDisplay:10.37,2013-10-10 13:41:00,
2013-10-10 09:46:00,49.8,46.1,30.17,North,0,5.5,8.1,87,0.00,CLR,,0.00,WeatherDisplay:10.37,2013-10-10 13:46:00,
2013-10-10 09:51:00,49.9,46.2,30.17,NNE,16,3.2,11.5,87,0.00,CLR,,0.00,WeatherDisplay:10.37,2013-10-10 13:51:00,
2013-10-10 09:56:00,50.1,46.4,30.17,North,0,5.1,8.1,87,0.00,CLR,,0.00,WeatherDisplay:10.37,2013-10-10 13:56:00,
2013-10-10 10:01:00,50.2,46.2,30.17,North,0,3.1,9.2,86,0.00,CLR,,0.00,WeatherDisplay:10.37,2013-10-10 14:01:00,
2013-10-10 10:06:00,50.4,46.4,30.17,North,0,4.5,6.9,86,0.00,CLR,,0.00,WeatherDisplay:10.37,2013-10-10 14:06:00,
2013-10-10 10:11:00,50.5,46.5,30.16,North,353,5.8,8.1,86,0.00,CLR,,0.00,WeatherDisplay:10.37,2013-10-10 14:11:00,
2013-10-10 10:16:00,50.7,46.7,30.16,North,0,6.2,9.2,86,0.00,CLR,,0.00,WeatherDisplay:10.37,2013-10-10 14:16:00,
2013-10-10 10:21:00,50.8,46.5,30.16,North,7,3.2,6.9,85,0.00,CLR,,0.00,WeatherDisplay:10.37,2013-10-10 14:21:00,
2013-10-10 10:26:00,51.0,47.0,30.17,North,1,1.3,2.3,86,0.00,CLR,,0.00,WeatherDisplay:10.37,2013-10-10 14:26:00,
2013-10-10 10:31:00,51.0,46.6,30.16,North,0,6.5,8.1,85,0.00,CLR,,0.00,WeatherDisplay:10.37,2013-10-10 14:31:00,
2013-10-10 10:36:00,51.1,46.7,30.16,NNE,23,2.5,6.9,85,0.00,CLR,,0.00,WeatherDisplay:10.37,2013-10-10 14:36:00,
2013-10-10 10:41:00,51.3,46.9,30.16,NNE,21,5.9,8.1,85,0.00,CLR,,0.00,WeatherDisplay:10.37,2013-10-10 14:41:00,
2013-10-10 10:46:00,51.3,46.9,30.16,NNW,340,5.8,10.4,85,0.00,CLR,,0.00,WeatherDisplay:10.37,2013-10-10 14:46:00,
2013-10-10 10:51:00,51.6,47.5,30.16,North,6,3.8,7.0,86,0.00,CLR,,0.00,WeatherDisplay:10.37,2013-10-10 14:51:00,
2013-10-10 10:56:00,51.7,47.6,30.16,North,4,3.8,5.8,86,0.00,CLR,,0.00,WeatherDisplay:10.37,2013-10-10 14:56:00,
2013-10-10 11:01:00,51.9,47.8,30.16,North,357,3.4,6.9,86,0.00,CLR,,0.00,WeatherDisplay:10.37,2013-10-10 15:01:00,
2013-10-10 11:06:00,51.9,47.8,30.15,North,0,3.8,5.8,86,0.00,CLR,,0.00,WeatherDisplay:10.37,2013-10-10 15:06:00,
2013-10-10 11:11:00,52.0,47.6,30.15,North,0,5.5,8.1,85,0.00,CLR,,0.00,WeatherDisplay:10.37,2013-10-10 15:11:00,
2013-10-10 11:16:00,52.2,48.1,30.15,North,0,7.8,10.4,86,0.00,CLR,,0.00,WeatherDisplay:10.37,2013-10-10 15:16:00,
2013-10-10 11:21:00,52.3,48.2,30.15,NE,38,6.9,10.4,86,0.00,CLR,,0.00,WeatherDisplay:10.37,2013-10-10 15:21:00,
2013-10-10 11:26:00,52.6,48.5,30.15,North,0,3.8,8.1,86,0.00,CLR,,0.00,WeatherDisplay:10.37,2013-10-10 15:26:00,
2013-10-10 11:31:00,52.8,48.7,30.15,NNE,30,3.5,6.0,86,0.00,CLR,,0.00,WeatherDisplay:10.37,2013-10-10 15:31:00,
2013-10-10 11:36:00,52.9,48.8,30.14,North,357,5.1,8.1,86,0.00,CLR,,0.00,WeatherDisplay:10.37,2013-10-10 15:36:00,
2013-10-10 11:41:00,53.1,48.7,30.15,NNE,30,4.8,5.8,85,0.00,CLR,,0.00,WeatherDisplay:10.37,2013-10-10 15:41:00,
2013-10-10 11:46:00,53.1,48.7,30.15,North,0,6.3,11.5,85,0.00,CLR,,0.00,WeatherDisplay:10.37,2013-10-10 15:46:00,
2013-10-10 11:51:00,53.1,48.4,30.15,North,0,5.6,6.9,84,0.00,CLR,,0.00,WeatherDisplay:10.37,2013-10-10 15:51:00,
2013-10-10 11:56:00,53.2,48.5,30.15,North,1,5.3,6.9,84,0.00,CLR,,0.00,WeatherDisplay:10.37,2013-10-10 15:56:00,
2013-10-10 12:01:00,53.3,48.3,30.14,North,0,6.0,8.1,83,0.00,CLR,,0.00,WeatherDisplay:10.37,2013-10-10 16:01:00,
2013-10-10 12:06:00,53.5,48.5,30.14,NNE,20,6.5,11.5,83,0.00,CLR,,0.00,WeatherDisplay:10.37,2013-10-10 16:06:00,
2013-10-10 12:11:00,53.6,48.2,30.14,ENE,76,3.5,8.1,82,0.00,CLR,,0.00,WeatherDisplay:10.37,2013-10-10 16:11:00,
2013-10-10 12:16:00,53.6,48.2,30.14,North,359,4.7,4.7,82,0.00,CLR,,0.00,WeatherDisplay:10.37,2013-10-10 16:16:00,
2013-10-10 12:21:00,53.8,48.4,30.14,North,1,3.2,5.8,82,0.00,CLR,,0.00,WeatherDisplay:10.37,2013-10-10 16:21:00,
2013-10-10 12:26:00,53.9,48.2,30.14,North,0,1.8,5.8,81,0.00,CLR,,0.00,WeatherDisplay:10.37,2013-10-10 16:26:00,
2013-10-10 12:31:00,54.1,48.4,30.14,North,0,5.5,11.5,81,0.00,CLR,,0.00,WeatherDisplay:10.37,2013-10-10 16:31:00,
2013-10-10 12:36:00,54.2,48.2,30.13,NNE,27,5.5,12.7,80,0.00,CLR,,0.00,WeatherDisplay:10.37,2013-10-10 16:36:00,
2013-10-10 12:41:00,54.5,48.5,30.13,North,0,4.9,6.9,80,0.00,CLR,,0.00,WeatherDisplay:10.37,2013-10-10 16:41:00,
2013-10-10 12:46:00,54.8,48.4,30.13,North,0,5.7,10.4,79,0.00,CLR,,0.00,WeatherDisplay:10.37,2013-10-10 16:46:00,
2013-10-10 12:51:00,55.1,48.4,30.12,NNE,27,5.6,12.7,78,0.00,CLR,,0.00,WeatherDisplay:10.37,2013-10-10 16:51:00,
2013-10-10 12:56:00,55.3,48.2,30.12,North,0,8.5,10.0,77,0.00,CLR,,0.00,WeatherDisplay:10.37,2013-10-10 16:56:00,
2013-10-10 13:01:00,55.4,48.7,30.12,NNE,27,6.4,8.1,78,0.00,CLR,,0.00,WeatherDisplay:10.37,2013-10-10 17:01:00,
2013-10-10 13:06:00,55.6,48.8,30.11,NNE,13,6.5,10.4,78,0.00,CLR,,0.00,WeatherDisplay:10.37,2013-10-10 17:06:00,
2013-10-10 13:11:00,55.6,48.8,30.11,North,0,6.2,10.4,78,0.00,CLR,,0.00,WeatherDisplay:10.37,2013-10-10 17:11:00,
2013-10-10 13:16:00,55.7,49.3,30.11,North,0,7.1,9.0,79,0.01,RA,,0.01,WeatherDisplay:10.37,2013-10-10 17:16:00,
2013-10-10 13:21:00,55.7,49.6,30.11,NNE,30,4.2,12.7,80,0.01,RA,,0.01,WeatherDisplay:10.37,2013-10-10 17:21:00,
2013-10-10 13:26:00,55.6,49.9,30.11,North,0,7.6,11.5,81,0.01,,,0.01,WeatherDisplay:10.37,2013-10-10 17:26:00,
2013-10-10 13:31:00,55.7,50.3,30.11,North,0,3.3,6.0,82,0.01,CLR,,0.01,WeatherDisplay:10.37,2013-10-10 17:31:00,
2013-10-10 13:36:00,55.7,50.0,30.11,NE,37,6.4,10.4,81,0.01,CLR,,0.01,WeatherDisplay:10.37,2013-10-10 17:36:00,
2013-10-10 13:41:00,55.6,50.2,30.10,North,11,4.8,8.1,82,0.01,CLR,,0.01,WeatherDisplay:10.37,2013-10-10 17:41:00,
2013-10-10 13:46:00,55.6,50.2,30.10,NNE,17,6.8,8.1,82,0.01,CLR,,0.01,WeatherDisplay:10.37,2013-10-10 17:46:00,
2013-10-10 13:51:00,55.6,50.2,30.10,North,0,5.1,8.1,82,0.01,CLR,,0.01,WeatherDisplay:10.37,2013-10-10 17:51:00,
2013-10-10 13:56:00,55.7,50.0,30.10,North,0,8.4,11.5,81,0.01,CLR,,0.01,WeatherDisplay:10.37,2013-10-10 17:56:00,
2013-10-10 14:01:00,55.7,50.3,30.09,NNE,23,3.4,6.9,82,0.01,CLR,,0.01,WeatherDisplay:10.37,2013-10-10 18:01:00,
2013-10-10 14:06:00,55.7,50.0,30.09,North,0,8.5,10.4,81,0.01,CLR,,0.01,WeatherDisplay:10.37,2013-10-10 18:06:00,
2013-10-10 14:11:00,55.7,50.0,30.09,NNE,20,7.3,10.4,81,0.01,CLR,,0.01,WeatherDisplay:10.37,2013-10-10 18:11:00,
2013-10-10 14:16:00,55.7,50.0,30.08,North,350,5.5,10.4,81,0.00,CLR,,0.01,WeatherDisplay:10.37,2013-10-10 18:16:00,
2013-10-10 14:21:00,55.9,49.8,30.08,North,0,9.7,16.0,80,0.00,CLR,,0.01,WeatherDisplay:10.37,2013-10-10 18:21:00,
2013-10-10 14:26:00,55.9,49.8,30.08,North,0,5.1,8.1,80,0.00,CLR,,0.01,WeatherDisplay:10.37,2013-10-10 18:26:00,
2013-10-10 14:31:00,56.0,49.9,30.08,North,7,6.5,8.1,80,0.00,CLR,,0.01,WeatherDisplay:10.37,2013-10-10 18:31:00,
2013-10-10 14:36:00,56.0,49.9,30.08,North,4,4.7,6.9,80,0.00,CLR,,0.01,WeatherDisplay:10.37,2013-10-10 18:36:00,
2013-10-10 14:41:00,56.0,49.9,30.08,NNE,32,1.2,5.0,80,0.00,CLR,,0.01,WeatherDisplay:10.37,2013-10-10 18:41:00,
2013-10-10 14:46:00,56.0,49.9,30.08,NNW,336,3.4,8.0,80,0.00,CLR,,0.01,WeatherDisplay:10.37,2013-10-10 18:46:00,
2013-10-10 14:51:00,55.9,50.2,30.08,NNE,21,4.5,7.0,81,0.00,CLR,,0.01,WeatherDisplay:10.37,2013-10-10 18:51:00,
2013-10-10 14:56:00,55.7,50.0,30.08,North,0,2.8,12.7,81,0.00,CLR,,0.01,WeatherDisplay:10.37,2013-10-10 18:56:00,
2013-10-10 15:01:00,55.7,50.3,30.09,NNE,18,2.7,6.9,82,0.00,CLR,,0.01,WeatherDisplay:10.37,2013-10-10 19:01:00,
2013-10-10 15:06:00,55.6,50.2,30.08,NNE,17,2.4,5.8,82,0.00,CLR,,0.01,WeatherDisplay:10.37,2013-10-10 19:06:00,
2013-10-10 15:12:00,55.6,49.9,30.08,NNE,30,3.3,6.9,81,0.00,CLR,,0.01,WeatherDisplay:10.37,2013-10-10 19:12:00,
2013-10-10 15:17:00,55.7,50.0,30.09,NNE,16,0.5,5.8,81,0.00,CLR,,0.01,WeatherDisplay:10.37,2013-10-10 19:17:00,
2013-10-10 15:22:00,55.6,49.9,30.08,NE,55,5.9,11.5,81,0.00,CLR,,0.01,WeatherDisplay:10.37,2013-10-10 19:22:00,
2013-10-10 15:27:00,55.6,49.9,30.08,North,0,4.5,7.0,81,0.00,CLR,,0.01,WeatherDisplay:10.37,2013-10-10 19:27:00,
2013-10-10 15:32:00,55.6,49.9,30.08,North,10,3.4,8.1,81,0.00,CLR,,0.01,WeatherDisplay:10.37,2013-10-10 19:32:00,
2013-10-10 15:37:00,55.6,49.9,30.08,North,0,2.8,4.6,81,0.00,CLR,,0.01,WeatherDisplay:10.37,2013-10-10 19:37:00,
2013-10-10 15:42:00,55.6,49.9,30.08,NE,38,2.5,13.0,81,0.00,CLR,,0.01,WeatherDisplay:10.37,2013-10-10 19:42:00,
2013-10-10 15:47:00,55.6,49.9,30.08,North,0,3.4,8.0,81,0.00,CLR,,0.01,WeatherDisplay:10.37,2013-10-10 19:47:00,
2013-10-10 15:52:00,55.6,49.9,30.08,North,356,4.8,6.9,81,0.00,CLR,,0.01,WeatherDisplay:10.37,2013-10-10 19:52:00,
2013-10-10 15:57:00,55.6,49.5,30.07,North,359,6.8,10.4,80,0.00,CLR,,0.01,WeatherDisplay:10.37,2013-10-10 19:57:00,
2013-10-10 16:02:00,55.6,49.9,30.07,North,1,5.3,6.9,81,0.00,CLR,,0.01,WeatherDisplay:10.37,2013-10-10 20:02:00,
2013-10-10 16:07:00,55.6,49.5,30.07,North,357,5.5,10.4,80,0.00,CLR,,0.01,WeatherDisplay:10.37,2013-10-10 20:07:00,
2013-10-10 16:12:00,55.6,49.5,30.07,North,0,6.4,10.4,80,0.00,CLR,,0.01,WeatherDisplay:10.37,2013-10-10 20:12:00,
2013-10-10 16:17:00,55.6,49.5,30.07,NNE,16,5.1,9.2,80,0.00,CLR,,0.01,WeatherDisplay:10.37,2013-10-10 20:17:00,
2013-10-10 16:22:00,55.7,49.6,30.07,NE,41,3.5,9.2,80,0.00,CLR,,0.01,WeatherDisplay:10.37,2013-10-10 20:22:00,
2013-10-10 16:27:00,55.7,49.6,30.06,North,354,5.5,8.1,80,0.00,CLR,,0.01,WeatherDisplay:10.37,2013-10-10 20:27:00,
2013-10-10 16:31:00,55.7,49.3,30.06,North,1,3.9,13.0,79,0.00,CLR,,0.01,WeatherDisplay:10.37,2013-10-10 20:31:00,
2013-10-10 16:36:00,55.9,49.5,30.06,NE,41,4.7,10.4,79,0.00,CLR,,0.01,WeatherDisplay:10.37,2013-10-10 20:36:00,
2013-10-10 16:41:00,56.0,49.6,30.06,NNE,13,3.8,6.9,79,0.00,CLR,,0.01,WeatherDisplay:10.37,2013-10-10 20:41:00,
2013-10-10 16:46:00,56.0,49.2,30.06,NNE,13,4.9,8.1,78,0.00,CLR,,0.01,WeatherDisplay:10.37,2013-10-10 20:46:00,
2013-10-10 16:51:00,56.0,49.6,30.06,NNE,25,1.8,3.5,79,0.00,CLR,,0.01,WeatherDisplay:10.37,2013-10-10 20:51:00,
2013-10-10 16:56:00,56.0,49.2,30.05,North,357,5.2,10.4,78,0.00,CLR,,0.01,WeatherDisplay:10.37,2013-10-10 20:56:00,
2013-10-10 17:01:00,56.2,49.4,30.05,ENE,72,6.5,13.8,78,0.00,CLR,,0.01,WeatherDisplay:10.37,2013-10-10 21:01:00,
2013-10-10 17:06:00,56.2,49.4,30.05,NNE,14,2.3,3.5,78,0.00,CLR,,0.01,WeatherDisplay:10.37,2013-10-10 21:06:00,
2013-10-10 17:11:00,56.2,49.4,30.05,North,0,3.5,6.9,78,0.00,CLR,,0.01,WeatherDisplay:10.37,2013-10-10 21:11:00,
2013-10-10 17:16:00,56.2,49.4,30.05,North,11,5.2,8.1,78,0.00,CLR,,0.01,WeatherDisplay:10.37,2013-10-10 21:16:00,
2013-10-10 17:21:00,56.3,49.5,30.05,North,0,4.8,8.1,78,0.00,CLR,,0.01,WeatherDisplay:10.37,2013-10-10 21:21:00,
2013-10-10 17:26:00,56.3,49.5,30.05,NNW,344,7.9,10.4,78,0.00,CLR,,0.01,WeatherDisplay:10.37,2013-10-10 21:26:00,
2013-10-10 17:31:00,56.2,49.4,30.05,North,1,4.0,8.1,78,0.00,CLR,,0.01,WeatherDisplay:10.37,2013-10-10 21:31:00,
2013-10-10 17:36:00,56.2,49.1,30.05,NNE,18,4.7,11.5,77,0.00,CLR,,0.01,WeatherDisplay:10.37,2013-10-10 21:36:00,
2013-10-10 17:41:00,56.0,48.9,30.05,North,0,5.8,8.1,77,0.00,CLR,,0.01,WeatherDisplay:10.37,2013-10-10 21:41:00,
2013-10-10 17:46:00,55.9,48.8,30.05,North,6,3.8,6.9,77,0.00,CLR,,0.01,WeatherDisplay:10.37,2013-10-10 21:46:00,
2013-10-10 17:51:00,55.9,48.8,30.05,North,356,4.9,12.7,77,0.00,CLR,,0.01,WeatherDisplay:10.37,2013-10-10 21:51:00,
2013-10-10 17:56:00,55.9,49.1,30.05,North,353,4.5,5.8,78,0.00,CLR,,0.01,WeatherDisplay:10.37,2013-10-10 21:56:00,
2013-10-10 18:01:00,55.7,48.6,30.05,North,0,4.5,6.9,77,0.00,CLR,,0.01,WeatherDisplay:10.37,2013-10-10 22:01:00,
2013-10-10 18:06:00,55.7,48.9,30.05,North,11,5.0,9.2,78,0.00,CLR,,0.01,WeatherDisplay:10.37,2013-10-10 22:06:00,
2013-10-10 18:11:00,55.7,48.9,30.05,NNE,18,5.3,9.2,78,0.00,CLR,,0.01,WeatherDisplay:10.37,2013-10-10 22:11:00,
2013-10-10 18:16:00,55.7,48.9,30.05,North,0,4.5,6.9,78,0.00,CLR,,0.01,WeatherDisplay:10.37,2013-10-10 22:16:00,
2013-10-10 18:21:00,55.6,48.8,30.05,NE,41,2.7,4.6,78,0.00,CLR,,0.01,WeatherDisplay:10.37,2013-10-10 22:21:00,
2013-10-10 18:26:00,55.6,48.5,30.05,NE,42,4.5,10.4,77,0.00,CLR,,0.01,WeatherDisplay:10.37,2013-10-10 22:26:00,
2013-10-10 18:31:00,55.6,48.8,30.05,East,83,3.7,5.8,78,0.00,CLR,,0.01,WeatherDisplay:10.37,2013-10-10 22:31:00,
2013-10-10 18:36:00,55.6,48.5,30.05,NNE,27,7.3,11.5,77,0.00,CLR,,0.01,WeatherDisplay:10.37,2013-10-10 22:36:00,
2013-10-10 18:41:00,55.6,48.8,30.05,ENE,71,4.5,6.9,78,0.00,CLR,,0.01,WeatherDisplay:10.37,2013-10-10 22:41:00,
2013-10-10 18:46:00,55.4,48.7,30.05,North,8,4.7,8.0,78,0.00,CLR,,0.01,WeatherDisplay:10.37,2013-10-10 22:46:00,
2013-10-10 18:51:00,55.4,48.7,30.05,NNE,14,5.6,10.4,78,0.00,CLR,,0.01,WeatherDisplay:10.37,2013-10-10 22:51:00,
2013-10-10 18:56:00,55.4,48.7,30.05,North,0,5.5,7.0,78,0.00,CLR,,0.01,WeatherDisplay:10.37,2013-10-10 22:56:00,
2013-10-10 19:01:00,55.4,48.7,30.05,NNW,344,5.9,11.5,78,0.00,CLR,,0.01,WeatherDisplay:10.37,2013-10-10 23:01:00,
2013-10-10 19:06:00,55.4,48.7,30.05,North,7,7.3,11.5,78,0.00,CLR,,0.01,WeatherDisplay:10.37,2013-10-10 23:06:00,
2013-10-10 19:11:00,55.4,48.7,30.05,NE,34,7.3,12.7,78,0.00,CLR,,0.01,WeatherDisplay:10.37,2013-10-10 23:11:00,
2013-10-10 19:16:00,55.3,48.9,30.05,North,0,5.0,10.4,79,0.00,CLR,,0.01,WeatherDisplay:10.37,2013-10-10 23:16:00,
2013-10-10 19:21:00,55.1,49.0,30.05,NNE,24,5.3,6.9,80,0.00,CLR,,0.01,WeatherDisplay:10.37,2013-10-10 23:21:00,
2013-10-10 19:26:00,54.7,49.3,30.05,North,1,8.0,12.7,82,0.01,RA,,0.02,WeatherDisplay:10.37,2013-10-10 23:26:00,
2013-10-10 19:31:00,54.4,49.3,30.05,North,10,2.0,5.8,83,0.03,RA,,0.04,WeatherDisplay:10.37,2013-10-10 23:31:00,
2013-10-10 19:36:00,53.9,49.5,30.05,North,1,0.9,4.6,85,0.05,RA,,0.06,WeatherDisplay:10.37,2013-10-10 23:36:00,
2013-10-10 19:41:00,53.8,49.7,30.05,North,356,6.2,8.1,86,0.07,RA,,0.08,WeatherDisplay:10.37,2013-10-10 23:41:00,
2013-10-10 19:46:00,53.6,49.8,30.05,NE,45,2.8,5.0,87,0.07,RA,,0.08,WeatherDisplay:10.37,2013-10-10 23:46:00,
2013-10-10 19:51:00,53.6,49.8,30.05,North,353,1.0,4.6,87,0.08,RA,,0.09,WeatherDisplay:10.37,2013-10-10 23:51:00,
2013-10-10 19:56:00,53.5,49.7,30.05,North,11,1.2,5.8,87,0.09,RA,,0.10,WeatherDisplay:10.37,2013-10-10 23:56:00,
2013-10-10 20:01:00,53.5,50.0,30.05,NE,35,2.5,8.1,88,0.09,RA,,0.10,WeatherDisplay:10.37,2013-10-11 00:01:00,
2013-10-10 20:06:00,53.5,50.0,30.05,NNE,30,0.0,0.0,88,0.09,CLR,,0.10,WeatherDisplay:10.37,2013-10-11 00:06:00,
2013-10-10 20:11:00,53.3,49.8,30.06,ENE,59,2.0,4.6,88,0.09,CLR,,0.10,WeatherDisplay:10.37,2013-10-11 00:11:00,
2013-10-10 20:16:00,53.3,49.8,30.06,ENE,59,1.4,3.5,88,0.09,CLR,,0.10,WeatherDisplay:10.37,2013-10-11 00:16:00,
2013-10-10 20:21:00,53.3,49.8,30.06,ENE,65,0.7,4.0,88,0.09,CLR,,0.10,WeatherDisplay:10.37,2013-10-11 00:21:00,
2013-10-10 20:26:00,53.3,49.8,30.05,North,3,3.6,8.1,88,0.08,CLR,,0.10,WeatherDisplay:10.37,2013-10-11 00:26:00,
2013-10-10 20:31:00,53.3,49.8,30.05,North,0,3.0,5.8,88,0.06,CLR,,0.10,WeatherDisplay:10.37,2013-10-11 00:31:00,
2013-10-10 20:36:00,53.2,49.7,30.05,NNW,346,2.1,6.0,88,0.04,CLR,,0.10,WeatherDisplay:10.37,2013-10-11 00:36:00,
2013-10-10 20:41:00,53.2,49.7,30.05,North,0,4.0,5.8,88,0.02,CLR,,0.10,WeatherDisplay:10.37,2013-10-11 00:41:00,
2013-10-10 20:46:00,53.2,49.4,30.05,ENE,75,1.5,6.9,87,0.02,CLR,,0.10,WeatherDisplay:10.37,2013-10-11 00:46:00,
2013-10-10 20:51:00,53.2,49.4,30.05,ENE,59,4.5,10.4,87,0.01,CLR,,0.10,WeatherDisplay:10.37,2013-10-11 00:51:00,
2013-10-10 20:56:00,53.2,49.4,30.05,NE,41,4.1,6.9,87,0.00,CLR,,0.10,WeatherDisplay:10.37,2013-10-11 00:56:00,
2013-10-10 21:01:00,53.3,49.2,30.04,NE,41,2.4,5.8,86,0.00,CLR,,0.10,WeatherDisplay:10.37,2013-10-11 01:01:00,
2013-10-10 21:06:00,53.5,49.4,30.04,North,0,3.4,8.1,86,0.00,CLR,,0.10,WeatherDisplay:10.37,2013-10-11 01:06:00,
2013-10-10 21:11:00,53.8,49.7,30.04,North,1,5.7,10.4,86,0.00,CLR,,0.10,WeatherDisplay:10.37,2013-10-11 01:11:00,
2013-10-10 21:16:00,54.1,49.7,30.04,NNE,24,1.9,5.8,85,0.00,CLR,,0.10,WeatherDisplay:10.37,2013-10-11 01:16:00,
2013-10-10 21:21:00,54.2,49.5,30.04,North,0,5.0,6.9,84,0.00,CLR,,0.10,WeatherDisplay:10.37,2013-10-11 01:21:00,
2013-10-10 21:26:00,54.4,49.7,30.04,North,10,2.8,5.8,84,0.00,CLR,,0.10,WeatherDisplay:10.37,2013-10-11 01:26:00,
2013-10-10 21:31:00,54.4,49.3,30.04,NNE,16,3.0,5.8,83,0.00,CLR,,0.10,WeatherDisplay:10.37,2013-10-11 01:31:00,
2013-10-10 21:36:00,54.4,49.3,30.04,NNE,27,5.3,13.8,83,0.00,CLR,,0.10,WeatherDisplay:10.37,2013-10-11 01:36:00,
2013-10-10 21:41:00,54.5,49.1,30.04,North,10,2.1,8.1,82,0.00,CLR,,0.10,WeatherDisplay:10.37,2013-10-11 01:41:00,
2013-10-10 21:46:00,54.5,49.1,30.04,North,3,2.1,10.4,82,0.00,CLR,,0.10,WeatherDisplay:10.37,2013-10-11 01:46:00,
2013-10-10 21:51:00,54.7,49.3,30.04,NNE,20,4.4,11.0,82,0.00,CLR,,0.10,WeatherDisplay:10.37,2013-10-11 01:51:00,
2013-10-10 21:56:00,54.7,49.0,30.04,NE,47,2.4,5.8,81,0.00,CLR,,0.10,WeatherDisplay:10.37,2013-10-11 01:56:00,
2013-10-10 22:01:00,54.8,49.1,30.04,NNE,16,2.9,8.1,81,0.00,CLR,,0.10,WeatherDisplay:10.37,2013-10-11 02:01:00,
2013-10-10 22:06:00,54.8,49.1,30.04,North,1,3.1,4.0,81,0.00,CLR,,0.10,WeatherDisplay:10.37,2013-10-11 02:06:00,
2013-10-10 22:11:00,55.0,49.3,30.04,North,8,1.8,4.6,81,0.00,CLR,,0.10,WeatherDisplay:10.37,2013-10-11 02:11:00,
2013-10-10 22:16:00,55.0,49.3,30.04,North,356,5.8,8.1,81,0.00,CLR,,0.10,WeatherDisplay:10.37,2013-10-11 02:16:00,
2013-10-10 22:21:00,55.0,49.3,30.04,North,0,5.9,6.9,81,0.00,CLR,,0.10,WeatherDisplay:10.37,2013-10-11 02:21:00,
2013-10-10 22:26:00,55.0,48.9,30.04,North,352,6.2,10.4,80,0.00,CLR,,0.10,WeatherDisplay:10.37,2013-10-11 02:26:00,
2013-10-10 22:31:00,55.1,49.0,30.04,NNE,13,5.5,11.5,80,0.00,CLR,,0.10,WeatherDisplay:10.37,2013-10-11 02:31:00,
2013-10-10 22:36:00,55.1,49.0,30.04,NE,48,6.1,10.4,80,0.00,CLR,,0.10,WeatherDisplay:10.37,2013-10-11 02:36:00,
2013-10-10 22:41:00,55.1,49.0,30.04,North,356,2.8,6.9,80,0.00,CLR,,0.10,WeatherDisplay:10.37,2013-10-11 02:41:00,
2013-10-10 22:46:00,55.1,49.0,30.04,NNE,13,3.4,6.9,80,0.00,CLR,,0.10,WeatherDisplay:10.37,2013-10-11 02:46:00,
2013-10-10 22:51:00,55.3,49.2,30.04,NE,38,3.3,8.1,80,0.00,CLR,,0.10,WeatherDisplay:10.37,2013-10-11 02:51:00,
2013-10-10 22:56:00,55.3,48.9,30.04,ENE,68,4.1,5.8,79,0.00,CLR,,0.10,WeatherDisplay:10.37,2013-10-11 02:56:00,
2013-10-10 23:01:00,55.1,48.7,30.04,NE,38,1.1,4.0,79,0.00,CLR,,0.10,WeatherDisplay:10.37,2013-10-11 03:01:00,
2013-10-10 23:06:00,55.1,48.7,30.03,North,8,4.2,6.9,79,0.00,CLR,,0.10,WeatherDisplay:10.37,2013-10-11 03:06:00,
2013-10-10 23:11:00,55.0,48.6,30.03,NNE,17,3.0,7.0,79,0.00,CLR,,0.10,WeatherDisplay:10.37,2013-10-11 03:11:00,
2013-10-10 23:16:00,55.0,48.6,30.03,North,3,3.5,6.9,79,0.00,CLR,,0.10,WeatherDisplay:10.37,2013-10-11 03:16:00,
2013-10-10 23:21:00,55.0,48.6,30.02,North,0,6.1,10.4,79,0.00,CLR,,0.10,WeatherDisplay:10.37,2013-10-11 03:21:00,
2013-10-10 23:26:00,54.8,48.4,30.02,North,356,3.9,4.6,79,0.00,CLR,,0.10,WeatherDisplay:10.37,2013-10-11 03:26:00,
2013-10-10 23:31:00,55.0,48.6,30.02,North,0,2.1,5.0,79,0.01,RA,,0.11,WeatherDisplay:10.37,2013-10-11 03:31:00,
2013-10-10 23:36:00,55.0,48.6,30.02,North,0,2.8,5.8,79,0.01,RA,,0.11,WeatherDisplay:10.37,2013-10-11 03:36:00,
2013-10-10 23:41:00,55.1,48.7,30.02,NE,51,3.0,11.5,79,0.01,CLR,,0.11,WeatherDisplay:10.37,2013-10-11 03:41:00,
2013-10-10 23:46:00,55.1,48.7,30.01,NNE,25,3.8,4.6,79,0.01,CLR,,0.11,WeatherDisplay:10.37,2013-10-11 03:46:00,
2013-10-10 23:51:00,55.3,48.9,30.01,North,11,5.4,6.9,79,0.01,CLR,,0.11,WeatherDisplay:10.37,2013-10-11 03:51:00,
2013-10-10 23:56:00,55.3,49.2,30.01,North,8,4.9,8.1,80,0.01,CLR,,0.11,WeatherDisplay:10.37,2013-10-11 03:56:00,